sensor_id;sensor_type;location;lat;lon;timestamp;P1;durP1;ratioP1;P2;durP2;ratioP2
73954;SDS011;62306;52.516;13.290;2023-03-20T00:00:39;5.50;;;3.97;;
73954;SDS011;62306;52.516;13.290;2023-03-20T00:03:08;8.15;;;3.72;;
73954;SDS011;62306;52.516;13.290;2023-03-20T00:05:36;5.93;;;3.92;;
73954;SDS011;62306;52.516;13.290;2023-03-20T00:08:04;5.93;;;3.88;;
73954;SDS011;62306;52.516;13.290;2023-03-20T00:10:34;7.28;;;3.72;;
73954;SDS011;62306;52.516;13.290;2023-03-20T00:13:05;5.32;;;4.00;;
73954;SDS011;62306;52.516;13.290;2023-03-20T00:15:36;6.68;;;4.45;;
73954;SDS011;62306;52.516;13.290;2023-03-20T00:18:08;7.53;;;4.38;;
73954;SDS011;62306;52.516;13.290;2023-03-20T00:20:40;7.63;;;4.20;;
73954;SDS011;62306;52.516;13.290;2023-03-20T00:23:07;9.02;;;4.15;;
73954;SDS011;62306;52.516;13.290;2023-03-20T00:25:36;5.57;;;4.07;;
73954;SDS011;62306;52.516;13.290;2023-03-20T00:28:09;9.02;;;4.28;;
73954;SDS011;62306;52.516;13.290;2023-03-20T00:31:09;7.07;;;4.45;;
73954;SDS011;62306;52.516;13.290;2023-03-20T00:33:49;6.65;;;4.32;;
73954;SDS011;62306;52.516;13.290;2023-03-20T00:36:17;11.40;;;4.93;;
73954;SDS011;62306;52.516;13.290;2023-03-20T00:38:43;9.52;;;4.68;;
73954;SDS011;62306;52.516;13.290;2023-03-20T00:41:17;8.65;;;4.80;;
73954;SDS011;62306;52.516;13.290;2023-03-20T00:43:48;10.57;;;5.00;;
73954;SDS011;62306;52.516;13.290;2023-03-20T00:46:17;6.53;;;4.72;;
73954;SDS011;62306;52.516;13.290;2023-03-20T00:48:44;7.32;;;5.00;;
73954;SDS011;62306;52.516;13.290;2023-03-20T00:51:12;11.02;;;5.15;;
73954;SDS011;62306;52.516;13.290;2023-03-20T00:53:39;9.18;;;5.30;;
73954;SDS011;62306;52.516;13.290;2023-03-20T00:56:08;8.15;;;5.18;;
73954;SDS011;62306;52.516;13.290;2023-03-20T00:58:53;11.73;;;5.00;;
73954;SDS011;62306;52.516;13.290;2023-03-20T01:01:21;7.88;;;5.25;;
73954;SDS011;62306;52.516;13.290;2023-03-20T01:03:48;11.63;;;5.15;;
73954;SDS011;62306;52.516;13.290;2023-03-20T01:06:15;10.15;;;5.45;;
73954;SDS011;62306;52.516;13.290;2023-03-20T01:08:43;9.85;;;5.82;;
73954;SDS011;62306;52.516;13.290;2023-03-20T01:11:10;9.93;;;5.93;;
73954;SDS011;62306;52.516;13.290;2023-03-20T01:13:40;7.63;;;4.80;;
73954;SDS011;62306;52.516;13.290;2023-03-20T01:16:11;12.55;;;5.15;;
73954;SDS011;62306;52.516;13.290;2023-03-20T01:18:45;10.27;;;5.07;;
73954;SDS011;62306;52.516;13.290;2023-03-20T01:21:12;9.95;;;5.22;;
73954;SDS011;62306;52.516;13.290;2023-03-20T01:23:39;9.82;;;4.90;;
73954;SDS011;62306;52.516;13.290;2023-03-20T01:26:10;6.90;;;4.28;;
73954;SDS011;62306;52.516;13.290;2023-03-20T01:28:48;12.43;;;6.15;;
73954;SDS011;62306;52.516;13.290;2023-03-20T01:31:15;15.00;;;5.30;;
73954;SDS011;62306;52.516;13.290;2023-03-20T01:33:43;7.55;;;4.97;;
73954;SDS011;62306;52.516;13.290;2023-03-20T01:36:11;6.90;;;4.38;;
73954;SDS011;62306;52.516;13.290;2023-03-20T01:38:40;8.52;;;4.68;;
73954;SDS011;62306;52.516;13.290;2023-03-20T01:41:08;7.30;;;5.07;;
73954;SDS011;62306;52.516;13.290;2023-03-20T01:43:39;9.15;;;5.57;;
73954;SDS011;62306;52.516;13.290;2023-03-20T01:46:14;8.82;;;4.25;;
73954;SDS011;62306;52.516;13.290;2023-03-20T01:48:57;6.72;;;4.65;;
73954;SDS011;62306;52.516;13.290;2023-03-20T01:51:27;11.38;;;5.25;;
73954;SDS011;62306;52.516;13.290;2023-03-20T01:53:57;9.20;;;5.03;;
73954;SDS011;62306;52.516;13.290;2023-03-20T01:56:27;6.57;;;4.70;;
73954;SDS011;62306;52.516;13.290;2023-03-20T01:58:58;9.05;;;4.38;;
73954;SDS011;62306;52.516;13.290;2023-03-20T02:01:30;9.57;;;6.13;;
73954;SDS011;62306;52.516;13.290;2023-03-20T02:03:59;11.25;;;6.07;;
73954;SDS011;62306;52.516;13.290;2023-03-20T02:06:27;9.52;;;5.78;;
73954;SDS011;62306;52.516;13.290;2023-03-20T02:08:54;8.05;;;5.45;;
73954;SDS011;62306;52.516;13.290;2023-03-20T02:11:22;8.45;;;5.45;;
73954;SDS011;62306;52.516;13.290;2023-03-20T02:13:50;10.75;;;5.45;;
73954;SDS011;62306;52.516;13.290;2023-03-20T02:16:20;7.85;;;5.25;;
73954;SDS011;62306;52.516;13.290;2023-03-20T02:18:49;7.47;;;5.38;;
73954;SDS011;62306;52.516;13.290;2023-03-20T02:21:29;9.32;;;5.70;;
73954;SDS011;62306;52.516;13.290;2023-03-20T02:27:23;10.90;;;5.30;;
73954;SDS011;62306;52.516;13.290;2023-03-20T02:30:06;6.40;;;5.32;;
73954;SDS011;62306;52.516;13.290;2023-03-20T02:32:58;11.05;;;6.93;;
73954;SDS011;62306;52.516;13.290;2023-03-20T02:42:13;14.23;;;6.00;;
73954;SDS011;62306;52.516;13.290;2023-03-20T02:44:50;6.65;;;5.78;;
73954;SDS011;62306;52.516;13.290;2023-03-20T02:47:24;9.55;;;5.78;;
73954;SDS011;62306;52.516;13.290;2023-03-20T02:49:59;12.73;;;5.78;;
73954;SDS011;62306;52.516;13.290;2023-03-20T02:52:37;10.57;;;5.88;;
73954;SDS011;62306;52.516;13.290;2023-03-20T02:55:13;8.05;;;6.03;;
73954;SDS011;62306;52.516;13.290;2023-03-20T02:57:48;9.82;;;6.03;;
73954;SDS011;62306;52.516;13.290;2023-03-20T03:00:23;9.38;;;6.30;;
73954;SDS011;62306;52.516;13.290;2023-03-20T03:02:59;9.25;;;6.70;;
73954;SDS011;62306;52.516;13.290;2023-03-20T03:05:31;7.63;;;5.88;;
73954;SDS011;62306;52.516;13.290;2023-03-20T03:08:03;11.43;;;6.95;;
73954;SDS011;62306;52.516;13.290;2023-03-20T03:10:35;13.30;;;6.60;;
73954;SDS011;62306;52.516;13.290;2023-03-20T03:13:08;11.20;;;8.02;;
73954;SDS011;62306;52.516;13.290;2023-03-20T03:18:09;10.65;;;6.63;;
73954;SDS011;62306;52.516;13.290;2023-03-20T03:20:39;9.32;;;6.88;;
73954;SDS011;62306;52.516;13.290;2023-03-20T03:23:09;13.30;;;6.88;;
73954;SDS011;62306;52.516;13.290;2023-03-20T03:25:45;11.73;;;6.63;;
73954;SDS011;62306;52.516;13.290;2023-03-20T03:28:17;9.35;;;7.18;;
73954;SDS011;62306;52.516;13.290;2023-03-20T03:30:48;10.10;;;7.30;;
73954;SDS011;62306;52.516;13.290;2023-03-20T03:33:18;15.02;;;7.93;;
73954;SDS011;62306;52.516;13.290;2023-03-20T03:35:49;10.88;;;7.35;;
73954;SDS011;62306;52.516;13.290;2023-03-20T03:38:22;10.02;;;7.20;;
73954;SDS011;62306;52.516;13.290;2023-03-20T03:40:58;11.32;;;8.27;;
73954;SDS011;62306;52.516;13.290;2023-03-20T03:43:44;11.35;;;8.05;;
73954;SDS011;62306;52.516;13.290;2023-03-20T03:46:17;14.00;;;7.90;;
73954;SDS011;62306;52.516;13.290;2023-03-20T03:48:51;13.52;;;8.40;;
73954;SDS011;62306;52.516;13.290;2023-03-20T03:51:22;11.65;;;7.80;;
73954;SDS011;62306;52.516;13.290;2023-03-20T03:53:52;11.20;;;8.30;;
73954;SDS011;62306;52.516;13.290;2023-03-20T05:04:21;16.38;;;10.02;;
73954;SDS011;62306;52.516;13.290;2023-03-20T05:06:48;17.60;;;10.73;;
73954;SDS011;62306;52.516;13.290;2023-03-20T05:09:15;13.48;;;10.07;;
73954;SDS011;62306;52.516;13.290;2023-03-20T05:11:42;17.27;;;10.77;;
73954;SDS011;62306;52.516;13.290;2023-03-20T05:14:09;16.55;;;10.98;;
73954;SDS011;62306;52.516;13.290;2023-03-20T05:16:36;16.52;;;12.02;;
73954;SDS011;62306;52.516;13.290;2023-03-20T05:19:04;20.98;;;11.77;;
73954;SDS011;62306;52.516;13.290;2023-03-20T05:21:32;19.25;;;11.95;;
73954;SDS011;62306;52.516;13.290;2023-03-20T05:23:59;17.77;;;11.82;;
73954;SDS011;62306;52.516;13.290;2023-03-20T05:26:27;20.85;;;12.27;;
73954;SDS011;62306;52.516;13.290;2023-03-20T05:28:53;19.10;;;12.55;;
73954;SDS011;62306;52.516;13.290;2023-03-20T05:31:20;23.20;;;12.50;;
73954;SDS011;62306;52.516;13.290;2023-03-20T05:33:47;22.00;;;13.60;;
73954;SDS011;62306;52.516;13.290;2023-03-20T05:36:14;22.08;;;13.35;;
73954;SDS011;62306;52.516;13.290;2023-03-20T05:38:43;19.85;;;12.57;;
73954;SDS011;62306;52.516;13.290;2023-03-20T05:41:10;28.10;;;15.70;;
73954;SDS011;62306;52.516;13.290;2023-03-20T05:43:37;23.70;;;14.13;;
73954;SDS011;62306;52.516;13.290;2023-03-20T05:46:04;21.88;;;14.23;;
73954;SDS011;62306;52.516;13.290;2023-03-20T05:48:31;25.42;;;13.85;;
73954;SDS011;62306;52.516;13.290;2023-03-20T05:50:58;29.17;;;15.43;;
73954;SDS011;62306;52.516;13.290;2023-03-20T05:53:25;32.30;;;17.70;;
73954;SDS011;62306;52.516;13.290;2023-03-20T05:55:53;25.38;;;15.63;;
73954;SDS011;62306;52.516;13.290;2023-03-20T05:58:20;22.05;;;14.52;;
73954;SDS011;62306;52.516;13.290;2023-03-20T06:00:47;23.67;;;14.77;;
73954;SDS011;62306;52.516;13.290;2023-03-20T06:03:15;23.75;;;15.82;;
73954;SDS011;62306;52.516;13.290;2023-03-20T06:05:42;28.30;;;16.58;;
73954;SDS011;62306;52.516;13.290;2023-03-20T06:08:09;22.80;;;14.77;;
73954;SDS011;62306;52.516;13.290;2023-03-20T06:10:36;27.63;;;18.35;;
73954;SDS011;62306;52.516;13.290;2023-03-20T06:13:05;27.73;;;18.17;;
73954;SDS011;62306;52.516;13.290;2023-03-20T06:15:32;28.25;;;18.00;;
73954;SDS011;62306;52.516;13.290;2023-03-20T06:17:59;32.67;;;18.45;;
73954;SDS011;62306;52.516;13.290;2023-03-20T06:20:26;32.50;;;18.70;;
73954;SDS011;62306;52.516;13.290;2023-03-20T06:22:53;28.83;;;18.85;;
73954;SDS011;62306;52.516;13.290;2023-03-20T06:25:20;38.55;;;19.70;;
73954;SDS011;62306;52.516;13.290;2023-03-20T06:27:47;37.95;;;20.90;;
73954;SDS011;62306;52.516;13.290;2023-03-20T06:30:15;37.88;;;22.10;;
73954;SDS011;62306;52.516;13.290;2023-03-20T06:32:43;36.15;;;21.58;;
73954;SDS011;62306;52.516;13.290;2023-03-20T06:35:10;37.35;;;22.63;;
73954;SDS011;62306;52.516;13.290;2023-03-20T06:37:37;44.72;;;25.33;;
73954;SDS011;62306;52.516;13.290;2023-03-20T06:40:05;41.92;;;24.02;;
73954;SDS011;62306;52.516;13.290;2023-03-20T06:42:34;44.95;;;25.35;;
73954;SDS011;62306;52.516;13.290;2023-03-20T06:45:01;41.78;;;24.08;;
73954;SDS011;62306;52.516;13.290;2023-03-20T06:47:29;49.72;;;26.83;;
73954;SDS011;62306;52.516;13.290;2023-03-20T06:49:56;49.88;;;26.42;;
73954;SDS011;62306;52.516;13.290;2023-03-20T06:52:23;51.78;;;27.83;;
73954;SDS011;62306;52.516;13.290;2023-03-20T06:54:50;45.45;;;26.35;;
73954;SDS011;62306;52.516;13.290;2023-03-20T06:57:17;45.60;;;26.65;;
73954;SDS011;62306;52.516;13.290;2023-03-20T06:59:44;45.45;;;25.45;;
73954;SDS011;62306;52.516;13.290;2023-03-20T07:02:11;47.20;;;25.88;;
73954;SDS011;62306;52.516;13.290;2023-03-20T07:04:40;48.42;;;25.00;;
73954;SDS011;62306;52.516;13.290;2023-03-20T07:07:07;41.95;;;24.20;;
73954;SDS011;62306;52.516;13.290;2023-03-20T07:09:34;49.45;;;26.83;;
73954;SDS011;62306;52.516;13.290;2023-03-20T07:12:01;45.33;;;25.60;;
73954;SDS011;62306;52.516;13.290;2023-03-20T07:14:29;45.63;;;24.67;;
73954;SDS011;62306;52.516;13.290;2023-03-20T07:16:56;44.72;;;25.13;;
73954;SDS011;62306;52.516;13.290;2023-03-20T07:19:23;53.95;;;27.35;;
73954;SDS011;62306;52.516;13.290;2023-03-20T07:21:54;50.15;;;25.10;;
73954;SDS011;62306;52.516;13.290;2023-03-20T07:24:26;55.45;;;25.92;;
73954;SDS011;62306;52.516;13.290;2023-03-20T07:26:53;53.47;;;26.40;;
73954;SDS011;62306;52.516;13.290;2023-03-20T07:29:20;53.42;;;25.73;;
73954;SDS011;62306;52.516;13.290;2023-03-20T07:31:47;56.80;;;24.25;;
73954;SDS011;62306;52.516;13.290;2023-03-20T07:34:14;55.50;;;25.15;;
73954;SDS011;62306;52.516;13.290;2023-03-20T07:36:41;51.88;;;24.50;;
73954;SDS011;62306;52.516;13.290;2023-03-20T07:39:10;49.38;;;25.63;;
73954;SDS011;62306;52.516;13.290;2023-03-20T07:41:38;53.72;;;25.48;;
73954;SDS011;62306;52.516;13.290;2023-03-20T07:44:05;54.35;;;26.15;;
73954;SDS011;62306;52.516;13.290;2023-03-20T07:46:34;58.35;;;26.52;;
73954;SDS011;62306;52.516;13.290;2023-03-20T07:49:01;55.70;;;26.85;;
73954;SDS011;62306;52.516;13.290;2023-03-20T07:51:29;54.40;;;27.02;;
73954;SDS011;62306;52.516;13.290;2023-03-20T07:53:56;54.92;;;26.15;;
73954;SDS011;62306;52.516;13.290;2023-03-20T07:56:25;61.72;;;26.05;;
73954;SDS011;62306;52.516;13.290;2023-03-20T07:58:52;60.25;;;27.65;;
73954;SDS011;62306;52.516;13.290;2023-03-20T08:01:19;50.40;;;24.77;;
73954;SDS011;62306;52.516;13.290;2023-03-20T08:03:46;48.63;;;23.45;;
73954;SDS011;62306;52.516;13.290;2023-03-20T08:06:13;55.88;;;25.70;;
73954;SDS011;62306;52.516;13.290;2023-03-20T08:08:40;52.42;;;25.10;;
73954;SDS011;62306;52.516;13.290;2023-03-20T08:11:09;49.78;;;22.90;;
73954;SDS011;62306;52.516;13.290;2023-03-20T08:13:37;51.13;;;23.45;;
73954;SDS011;62306;52.516;13.290;2023-03-20T08:16:04;49.33;;;23.17;;
73954;SDS011;62306;52.516;13.290;2023-03-20T08:18:31;50.28;;;23.25;;
73954;SDS011;62306;52.516;13.290;2023-03-20T08:20:58;48.75;;;23.05;;
73954;SDS011;62306;52.516;13.290;2023-03-20T08:23:25;53.00;;;23.92;;
73954;SDS011;62306;52.516;13.290;2023-03-20T08:25:52;50.03;;;23.48;;
73954;SDS011;62306;52.516;13.290;2023-03-20T08:28:19;44.80;;;21.63;;
73954;SDS011;62306;52.516;13.290;2023-03-20T08:30:48;44.10;;;22.48;;
73954;SDS011;62306;52.516;13.290;2023-03-20T08:33:16;44.58;;;21.08;;
73954;SDS011;62306;52.516;13.290;2023-03-20T08:35:43;47.05;;;21.83;;
73954;SDS011;62306;52.516;13.290;2023-03-20T08:38:19;44.08;;;21.42;;
73954;SDS011;62306;52.516;13.290;2023-03-20T08:40:46;45.28;;;22.67;;
73954;SDS011;62306;52.516;13.290;2023-03-20T08:43:13;43.65;;;21.40;;
73954;SDS011;62306;52.516;13.290;2023-03-20T08:45:41;36.42;;;19.67;;
73954;SDS011;62306;52.516;13.290;2023-03-20T08:48:09;39.30;;;19.67;;
73954;SDS011;62306;52.516;13.290;2023-03-20T08:50:36;37.10;;;18.77;;
73954;SDS011;62306;52.516;13.290;2023-03-20T08:53:04;38.53;;;19.83;;
73954;SDS011;62306;52.516;13.290;2023-03-20T08:55:31;35.60;;;18.20;;
73954;SDS011;62306;52.516;13.290;2023-03-20T08:57:59;36.88;;;17.60;;
73954;SDS011;62306;52.516;13.290;2023-03-20T09:00:26;38.20;;;17.65;;
73954;SDS011;62306;52.516;13.290;2023-03-20T09:02:53;37.22;;;18.88;;
73954;SDS011;62306;52.516;13.290;2023-03-20T09:05:21;35.08;;;16.90;;
73954;SDS011;62306;52.516;13.290;2023-03-20T09:07:48;30.20;;;16.13;;
73954;SDS011;62306;52.516;13.290;2023-03-20T09:10:16;32.38;;;18.27;;
73954;SDS011;62306;52.516;13.290;2023-03-20T09:12:43;36.97;;;17.05;;
73954;SDS011;62306;52.516;13.290;2023-03-20T09:15:10;30.10;;;16.73;;
73954;SDS011;62306;52.516;13.290;2023-03-20T09:17:37;29.65;;;16.08;;
73954;SDS011;62306;52.516;13.290;2023-03-20T09:20:04;30.48;;;15.70;;
73954;SDS011;62306;52.516;13.290;2023-03-20T09:22:33;29.73;;;15.15;;
73954;SDS011;62306;52.516;13.290;2023-03-20T09:25:00;29.33;;;13.63;;
73954;SDS011;62306;52.516;13.290;2023-03-20T09:27:27;28.63;;;15.25;;
73954;SDS011;62306;52.516;13.290;2023-03-20T09:29:54;30.95;;;13.52;;
73954;SDS011;62306;52.516;13.290;2023-03-20T09:32:21;32.05;;;16.65;;
73954;SDS011;62306;52.516;13.290;2023-03-20T09:34:48;31.77;;;16.52;;
73954;SDS011;62306;52.516;13.290;2023-03-20T09:37:15;27.83;;;15.07;;
73954;SDS011;62306;52.516;13.290;2023-03-20T09:39:43;29.77;;;14.32;;
73954;SDS011;62306;52.516;13.290;2023-03-20T09:42:14;29.45;;;15.70;;
73954;SDS011;62306;52.516;13.290;2023-03-20T09:44:51;31.27;;;14.50;;
73954;SDS011;62306;52.516;13.290;2023-03-20T09:47:29;31.50;;;14.05;;
73954;SDS011;62306;52.516;13.290;2023-03-20T09:50:05;22.77;;;12.68;;
73954;SDS011;62306;52.516;13.290;2023-03-20T09:52:48;27.13;;;13.75;;
73954;SDS011;62306;52.516;13.290;2023-03-20T09:55:24;23.73;;;13.75;;
73954;SDS011;62306;52.516;13.290;2023-03-20T09:57:57;23.77;;;11.75;;
73954;SDS011;62306;52.516;13.290;2023-03-20T10:00:30;22.20;;;10.95;;
73954;SDS011;62306;52.516;13.290;2023-03-20T10:03:00;20.90;;;10.65;;
73954;SDS011;62306;52.516;13.290;2023-03-20T10:05:29;21.98;;;11.57;;
73954;SDS011;62306;52.516;13.290;2023-03-20T10:08:01;20.95;;;11.30;;
73954;SDS011;62306;52.516;13.290;2023-03-20T10:10:33;19.30;;;10.38;;
73954;SDS011;62306;52.516;13.290;2023-03-20T10:13:12;20.08;;;10.02;;
73954;SDS011;62306;52.516;13.290;2023-03-20T10:15:54;18.00;;;9.90;;
73954;SDS011;62306;52.516;13.290;2023-03-20T10:18:29;20.95;;;10.40;;
73954;SDS011;62306;52.516;13.290;2023-03-20T10:21:02;16.92;;;9.43;;
73954;SDS011;62306;52.516;13.290;2023-03-20T10:23:34;17.75;;;9.25;;
73954;SDS011;62306;52.516;13.290;2023-03-20T10:26:08;17.27;;;9.50;;
73954;SDS011;62306;52.516;13.290;2023-03-20T10:28:41;17.08;;;9.88;;
73954;SDS011;62306;52.516;13.290;2023-03-20T10:31:17;19.35;;;9.30;;
73954;SDS011;62306;52.516;13.290;2023-03-20T10:33:57;17.55;;;9.55;;
73954;SDS011;62306;52.516;13.290;2023-03-20T10:36:45;19.38;;;9.65;;
73954;SDS011;62306;52.516;13.290;2023-03-20T10:39:27;23.83;;;10.05;;
73954;SDS011;62306;52.516;13.290;2023-03-20T10:42:10;19.38;;;9.43;;
73954;SDS011;62306;52.516;13.290;2023-03-20T10:44:41;16.33;;;8.90;;
73954;SDS011;62306;52.516;13.290;2023-03-20T10:47:14;18.02;;;8.05;;
73954;SDS011;62306;52.516;13.290;2023-03-20T10:49:48;21.00;;;8.98;;
73954;SDS011;62306;52.516;13.290;2023-03-20T10:52:18;16.50;;;9.05;;
73954;SDS011;62306;52.516;13.290;2023-03-20T10:54:49;14.65;;;8.50;;
73954;SDS011;62306;52.516;13.290;2023-03-20T10:57:22;16.45;;;8.00;;
73954;SDS011;62306;52.516;13.290;2023-03-20T10:59:51;17.58;;;9.27;;
73954;SDS011;62306;52.516;13.290;2023-03-20T11:02:21;15.27;;;8.02;;
73954;SDS011;62306;52.516;13.290;2023-03-20T11:04:50;14.63;;;8.90;;
73954;SDS011;62306;52.516;13.290;2023-03-20T11:07:20;16.55;;;9.30;;
73954;SDS011;62306;52.516;13.290;2023-03-20T11:12:36;18.40;;;8.63;;
73954;SDS011;62306;52.516;13.290;2023-03-20T11:15:14;14.93;;;7.88;;
73954;SDS011;62306;52.516;13.290;2023-03-20T11:17:49;16.02;;;7.72;;
73954;SDS011;62306;52.516;13.290;2023-03-20T11:20:21;14.15;;;7.35;;
73954;SDS011;62306;52.516;13.290;2023-03-20T11:22:49;16.20;;;8.65;;
73954;SDS011;62306;52.516;13.290;2023-03-20T11:25:22;13.45;;;7.53;;
73954;SDS011;62306;52.516;13.290;2023-03-20T11:27:55;17.75;;;8.68;;
73954;SDS011;62306;52.516;13.290;2023-03-20T11:30:23;17.35;;;8.63;;
73954;SDS011;62306;52.516;13.290;2023-03-20T11:32:53;15.75;;;8.38;;
73954;SDS011;62306;52.516;13.290;2023-03-20T11:35:25;19.83;;;9.40;;
73954;SDS011;62306;52.516;13.290;2023-03-20T11:38:06;16.13;;;8.57;;
73954;SDS011;62306;52.516;13.290;2023-03-20T11:40:38;15.18;;;8.50;;
73954;SDS011;62306;52.516;13.290;2023-03-20T11:43:09;18.38;;;10.02;;
73954;SDS011;62306;52.516;13.290;2023-03-20T11:45:38;13.67;;;7.90;;
73954;SDS011;62306;52.516;13.290;2023-03-20T11:48:12;16.08;;;9.35;;
73954;SDS011;62306;52.516;13.290;2023-03-20T11:50:43;16.65;;;8.57;;
73954;SDS011;62306;52.516;13.290;2023-03-20T11:53:18;17.00;;;9.25;;
73954;SDS011;62306;52.516;13.290;2023-03-20T11:55:58;19.65;;;9.32;;
73954;SDS011;62306;52.516;13.290;2023-03-20T11:58:33;15.43;;;8.27;;
73954;SDS011;62306;52.516;13.290;2023-03-20T12:01:03;16.63;;;8.88;;
73954;SDS011;62306;52.516;13.290;2023-03-20T12:03:36;16.98;;;8.68;;
73954;SDS011;62306;52.516;13.290;2023-03-20T12:06:08;16.98;;;8.55;;
73954;SDS011;62306;52.516;13.290;2023-03-20T12:08:40;14.20;;;8.32;;
73954;SDS011;62306;52.516;13.290;2023-03-20T12:11:17;15.25;;;8.95;;
73954;SDS011;62306;52.516;13.290;2023-03-20T12:14:01;17.52;;;10.10;;
73954;SDS011;62306;52.516;13.290;2023-03-20T12:16:30;15.15;;;9.25;;
73954;SDS011;62306;52.516;13.290;2023-03-20T12:19:00;14.88;;;8.25;;
73954;SDS011;62306;52.516;13.290;2023-03-20T12:21:32;16.80;;;9.70;;
73954;SDS011;62306;52.516;13.290;2023-03-20T12:24:07;19.10;;;9.40;;
73954;SDS011;62306;52.516;13.290;2023-03-20T12:26:41;17.45;;;9.73;;
73954;SDS011;62306;52.516;13.290;2023-03-20T12:29:17;16.55;;;9.13;;
73954;SDS011;62306;52.516;13.290;2023-03-20T12:31:52;17.48;;;8.93;;
73954;SDS011;62306;52.516;13.290;2023-03-20T12:34:25;18.77;;;8.75;;
73954;SDS011;62306;52.516;13.290;2023-03-20T12:36:57;19.60;;;9.75;;
73954;SDS011;62306;52.516;13.290;2023-03-20T12:39:24;16.05;;;9.65;;
73954;SDS011;62306;52.516;13.290;2023-03-20T12:42:00;23.15;;;10.05;;
73954;SDS011;62306;52.516;13.290;2023-03-20T12:44:40;20.88;;;10.15;;
73954;SDS011;62306;52.516;13.290;2023-03-20T12:47:15;17.33;;;9.48;;
73954;SDS011;62306;52.516;13.290;2023-03-20T12:49:54;18.80;;;9.95;;
73954;SDS011;62306;52.516;13.290;2023-03-20T12:52:28;18.75;;;9.77;;
73954;SDS011;62306;52.516;13.290;2023-03-20T12:58:15;20.35;;;10.20;;
73954;SDS011;62306;52.516;13.290;2023-03-20T13:00:53;24.30;;;11.15;;
73954;SDS011;62306;52.516;13.290;2023-03-20T13:03:32;19.48;;;10.25;;
73954;SDS011;62306;52.516;13.290;2023-03-20T13:06:18;21.33;;;11.23;;
73954;SDS011;62306;52.516;13.290;2023-03-20T13:08:59;19.77;;;10.30;;
73954;SDS011;62306;52.516;13.290;2023-03-20T13:11:45;24.67;;;12.10;;
73954;SDS011;62306;52.516;13.290;2023-03-20T13:14:18;22.23;;;11.70;;
73954;SDS011;62306;52.516;13.290;2023-03-20T13:16:54;23.38;;;11.65;;
73954;SDS011;62306;52.516;13.290;2023-03-20T13:19:29;23.85;;;11.80;;
73954;SDS011;62306;52.516;13.290;2023-03-20T13:22:05;19.98;;;11.73;;
73954;SDS011;62306;52.516;13.290;2023-03-20T13:24:37;22.05;;;11.68;;
73954;SDS011;62306;52.516;13.290;2023-03-20T13:27:14;23.52;;;11.77;;
73954;SDS011;62306;52.516;13.290;2023-03-20T13:29:51;23.20;;;11.07;;
73954;SDS011;62306;52.516;13.290;2023-03-20T13:32:29;23.48;;;12.82;;
73954;SDS011;62306;52.516;13.290;2023-03-20T13:35:22;23.55;;;13.13;;
73954;SDS011;62306;52.516;13.290;2023-03-20T13:37:58;22.38;;;11.95;;
73954;SDS011;62306;52.516;13.290;2023-03-20T13:40:29;25.42;;;12.02;;
73954;SDS011;62306;52.516;13.290;2023-03-20T13:42:59;25.02;;;12.25;;
73954;SDS011;62306;52.516;13.290;2023-03-20T13:45:39;23.15;;;12.38;;
73954;SDS011;62306;52.516;13.290;2023-03-20T13:48:11;27.33;;;13.52;;
73954;SDS011;62306;52.516;13.290;2023-03-20T13:50:48;67.93;;;35.80;;
73954;SDS011;62306;52.516;13.290;2023-03-20T13:53:22;25.40;;;13.50;;
73954;SDS011;62306;52.516;13.290;2023-03-20T13:55:57;26.42;;;12.70;;
73954;SDS011;62306;52.516;13.290;2023-03-20T13:58:37;27.15;;;14.05;;
73954;SDS011;62306;52.516;13.290;2023-03-20T14:01:14;27.00;;;14.57;;
73954;SDS011;62306;52.516;13.290;2023-03-20T14:03:47;26.13;;;13.45;;
73954;SDS011;62306;52.516;13.290;2023-03-20T14:06:16;29.48;;;12.60;;
73954;SDS011;62306;52.516;13.290;2023-03-20T14:09:04;27.35;;;13.00;;
73954;SDS011;62306;52.516;13.290;2023-03-20T14:11:55;28.95;;;13.07;;
73954;SDS011;62306;52.516;13.290;2023-03-20T14:14:25;25.25;;;12.98;;
73954;SDS011;62306;52.516;13.290;2023-03-20T14:17:01;25.52;;;13.65;;
73954;SDS011;62306;52.516;13.290;2023-03-20T14:19:36;26.45;;;13.43;;
73954;SDS011;62306;52.516;13.290;2023-03-20T14:22:04;25.00;;;13.02;;
73954;SDS011;62306;52.516;13.290;2023-03-20T14:24:34;25.52;;;13.18;;
73954;SDS011;62306;52.516;13.290;2023-03-20T14:27:04;27.88;;;13.77;;
73954;SDS011;62306;52.516;13.290;2023-03-20T14:29:35;35.25;;;14.07;;
73954;SDS011;62306;52.516;13.290;2023-03-20T14:32:03;26.25;;;13.75;;
73954;SDS011;62306;52.516;13.290;2023-03-20T14:34:48;28.73;;;14.80;;
73954;SDS011;62306;52.516;13.290;2023-03-20T14:37:27;30.30;;;13.85;;
73954;SDS011;62306;52.516;13.290;2023-03-20T14:40:01;25.83;;;13.73;;
73954;SDS011;62306;52.516;13.290;2023-03-20T14:42:38;30.83;;;14.50;;
73954;SDS011;62306;52.516;13.290;2023-03-20T14:48:05;31.73;;;16.08;;
73954;SDS011;62306;52.516;13.290;2023-03-20T14:50:48;29.05;;;14.93;;
73954;SDS011;62306;52.516;13.290;2023-03-20T14:53:20;27.35;;;14.85;;
73954;SDS011;62306;52.516;13.290;2023-03-20T14:55:50;29.38;;;14.65;;
73954;SDS011;62306;52.516;13.290;2023-03-20T15:01:24;28.55;;;15.18;;
73954;SDS011;62306;52.516;13.290;2023-03-20T15:04:00;26.75;;;13.95;;
73954;SDS011;62306;52.516;13.290;2023-03-20T15:06:33;32.00;;;15.55;;
73954;SDS011;62306;52.516;13.290;2023-03-20T15:09:08;30.50;;;15.20;;
73954;SDS011;62306;52.516;13.290;2023-03-20T15:11:36;28.35;;;14.45;;
73954;SDS011;62306;52.516;13.290;2023-03-20T15:14:05;37.90;;;16.80;;
73954;SDS011;62306;52.516;13.290;2023-03-20T15:16:34;33.20;;;16.65;;
73954;SDS011;62306;52.516;13.290;2023-03-20T15:19:03;30.17;;;15.48;;
73954;SDS011;62306;52.516;13.290;2023-03-20T15:21:37;33.47;;;15.80;;
73954;SDS011;62306;52.516;13.290;2023-03-20T15:24:06;34.13;;;16.13;;
73954;SDS011;62306;52.516;13.290;2023-03-20T15:26:33;32.85;;;13.95;;
73954;SDS011;62306;52.516;13.290;2023-03-20T15:29:02;31.35;;;15.35;;
73954;SDS011;62306;52.516;13.290;2023-03-20T15:31:32;28.42;;;15.43;;
73954;SDS011;62306;52.516;13.290;2023-03-20T15:34:00;29.58;;;14.98;;
73954;SDS011;62306;52.516;13.290;2023-03-20T15:36:30;36.53;;;18.23;;
73954;SDS011;62306;52.516;13.290;2023-03-20T15:39:04;26.35;;;14.30;;
73954;SDS011;62306;52.516;13.290;2023-03-20T15:41:36;27.85;;;14.68;;
73954;SDS011;62306;52.516;13.290;2023-03-20T15:44:11;29.85;;;14.45;;
73954;SDS011;62306;52.516;13.290;2023-03-20T15:46:49;25.90;;;14.38;;
73954;SDS011;62306;52.516;13.290;2023-03-20T15:49:17;25.20;;;14.07;;
73954;SDS011;62306;52.516;13.290;2023-03-20T15:51:44;27.85;;;15.88;;
73954;SDS011;62306;52.516;13.290;2023-03-20T15:54:14;27.58;;;14.63;;
73954;SDS011;62306;52.516;13.290;2023-03-20T15:56:44;26.70;;;13.77;;
73954;SDS011;62306;52.516;13.290;2023-03-20T15:59:12;25.60;;;14.13;;
73954;SDS011;62306;52.516;13.290;2023-03-20T16:01:41;25.08;;;14.02;;
73954;SDS011;62306;52.516;13.290;2023-03-20T16:04:10;25.13;;;14.27;;
73954;SDS011;62306;52.516;13.290;2023-03-20T16:06:44;23.90;;;14.20;;
73954;SDS011;62306;52.516;13.290;2023-03-20T16:09:14;27.63;;;14.23;;
73954;SDS011;62306;52.516;13.290;2023-03-20T16:11:43;31.35;;;13.70;;